sensor_id;sensor_type;location;lat;lon;timestamp;P1;durP1;ratioP1;P2;durP2;ratioP2
55461;SDS011;41327;45.102;20.624;2024-03-22T00:00:41;114.80;;;44.53;;
55461;SDS011;41327;45.102;20.624;2024-03-22T00:03:07;118.95;;;47.95;;
55461;SDS011;41327;45.102;20.624;2024-03-22T00:05:32;117.75;;;47.58;;
55461;SDS011;41327;45.102;20.624;2024-03-22T00:07:57;128.10;;;51.78;;
55461;SDS011;41327;45.102;20.624;2024-03-22T00:10:23;117.40;;;49.05;;
55461;SDS011;41327;45.102;20.624;2024-03-22T00:12:49;113.88;;;47.50;;
55461;SDS011;41327;45.102;20.624;2024-03-22T00:15:14;115.63;;;46.00;;
55461;SDS011;41327;45.102;20.624;2024-03-22T00:17:40;110.07;;;44.53;;
55461;SDS011;41327;45.102;20.624;2024-03-22T00:20:06;99.45;;;43.00;;
55461;SDS011;41327;45.102;20.624;2024-03-22T00:22:32;108.07;;;43.55;;
55461;SDS011;41327;45.102;20.624;2024-03-22T00:24:57;115.40;;;45.67;;
55461;SDS011;41327;45.102;20.624;2024-03-22T00:27:23;111.57;;;46.78;;
55461;SDS011;41327;45.102;20.624;2024-03-22T00:29:48;108.70;;;42.45;;
55461;SDS011;41327;45.102;20.624;2024-03-22T00:32:14;118.90;;;44.03;;
55461;SDS011;41327;45.102;20.624;2024-03-22T00:34:42;126.00;;;51.35;;
55461;SDS011;41327;45.102;20.624;2024-03-22T00:37:08;171.18;;;66.55;;
55461;SDS011;41327;45.102;20.624;2024-03-22T00:39:33;212.57;;;89.95;;
55461;SDS011;41327;45.102;20.624;2024-03-22T00:41:59;153.25;;;59.10;;
55461;SDS011;41327;45.102;20.624;2024-03-22T00:44:24;162.10;;;60.67;;
55461;SDS011;41327;45.102;20.624;2024-03-22T00:46:50;158.15;;;69.72;;
55461;SDS011;41327;45.102;20.624;2024-03-22T00:49:15;161.98;;;63.97;;
55461;SDS011;41327;45.102;20.624;2024-03-22T00:51:41;125.82;;;54.42;;
55461;SDS011;41327;45.102;20.624;2024-03-22T00:54:09;117.07;;;48.55;;
55461;SDS011;41327;45.102;20.624;2024-03-22T00:56:34;112.78;;;47.42;;
55461;SDS011;41327;45.102;20.624;2024-03-22T00:59:00;98.78;;;43.35;;
55461;SDS011;41327;45.102;20.624;2024-03-22T01:01:25;96.05;;;43.85;;
55461;SDS011;41327;45.102;20.624;2024-03-22T01:03:51;88.25;;;39.88;;
55461;SDS011;41327;45.102;20.624;2024-03-22T01:06:16;85.80;;;39.63;;
55461;SDS011;41327;45.102;20.624;2024-03-22T01:08:47;66.82;;;28.75;;
55461;SDS011;41327;45.102;20.624;2024-03-22T01:11:13;46.53;;;21.40;;
55461;SDS011;41327;45.102;20.624;2024-03-22T01:13:38;53.58;;;22.08;;
55461;SDS011;41327;45.102;20.624;2024-03-22T01:16:04;50.42;;;22.08;;
55461;SDS011;41327;45.102;20.624;2024-03-22T01:18:30;34.30;;;18.30;;
55461;SDS011;41327;45.102;20.624;2024-03-22T01:20:55;40.60;;;18.25;;
55461;SDS011;41327;45.102;20.624;2024-03-22T01:23:20;45.35;;;19.05;;
55461;SDS011;41327;45.102;20.624;2024-03-22T01:25:46;32.60;;;16.25;;
55461;SDS011;41327;45.102;20.624;2024-03-22T01:28:11;34.10;;;15.10;;
55461;SDS011;41327;45.102;20.624;2024-03-22T01:30:37;34.83;;;15.70;;
55461;SDS011;41327;45.102;20.624;2024-03-22T01:33:02;28.73;;;15.25;;
55461;SDS011;41327;45.102;20.624;2024-03-22T01:35:28;29.33;;;14.75;;
55461;SDS011;41327;45.102;20.624;2024-03-22T01:37:53;34.55;;;15.98;;
55461;SDS011;41327;45.102;20.624;2024-03-22T01:40:19;26.40;;;14.55;;
55461;SDS011;41327;45.102;20.624;2024-03-22T01:42:45;30.08;;;14.02;;
55461;SDS011;41327;45.102;20.624;2024-03-22T01:45:11;25.27;;;12.77;;
55461;SDS011;41327;45.102;20.624;2024-03-22T01:47:39;25.02;;;12.63;;
55461;SDS011;41327;45.102;20.624;2024-03-22T01:50:04;31.67;;;14.38;;
55461;SDS011;41327;45.102;20.624;2024-03-22T01:52:32;30.63;;;13.52;;
55461;SDS011;41327;45.102;20.624;2024-03-22T01:54:57;22.25;;;12.57;;
55461;SDS011;41327;45.102;20.624;2024-03-22T01:57:23;22.17;;;11.80;;
55461;SDS011;41327;45.102;20.624;2024-03-22T01:59:48;20.55;;;11.73;;
55461;SDS011;41327;45.102;20.624;2024-03-22T02:02:15;25.85;;;12.65;;
55461;SDS011;41327;45.102;20.624;2024-03-22T02:04:40;25.05;;;12.10;;
55461;SDS011;41327;45.102;20.624;2024-03-22T02:07:06;28.63;;;11.88;;
55461;SDS011;41327;45.102;20.624;2024-03-22T02:09:31;24.98;;;12.48;;
55461;SDS011;41327;45.102;20.624;2024-03-22T02:11:57;24.83;;;12.63;;
55461;SDS011;41327;45.102;20.624;2024-03-22T02:14:23;20.88;;;11.85;;
55461;SDS011;41327;45.102;20.624;2024-03-22T02:16:48;23.60;;;12.60;;
55461;SDS011;41327;45.102;20.624;2024-03-22T02:19:14;23.38;;;12.70;;
55461;SDS011;41327;45.102;20.624;2024-03-22T02:21:40;25.48;;;12.40;;
55461;SDS011;41327;45.102;20.624;2024-03-22T02:24:05;72.95;;;31.65;;
55461;SDS011;41327;45.102;20.624;2024-03-22T02:26:31;39.15;;;20.08;;
55461;SDS011;41327;45.102;20.624;2024-03-22T02:28:56;37.55;;;16.85;;
55461;SDS011;41327;45.102;20.624;2024-03-22T02:31:22;33.08;;;16.60;;
55461;SDS011;41327;45.102;20.624;2024-03-22T02:33:49;28.15;;;14.13;;
55461;SDS011;41327;45.102;20.624;2024-03-22T02:36:14;28.48;;;13.70;;
55461;SDS011;41327;45.102;20.624;2024-03-22T02:38:40;30.15;;;14.82;;
55461;SDS011;41327;45.102;20.624;2024-03-22T02:41:05;30.95;;;13.38;;
55461;SDS011;41327;45.102;20.624;2024-03-22T02:43:31;23.02;;;12.90;;
55461;SDS011;41327;45.102;20.624;2024-03-22T02:45:56;24.92;;;13.88;;
55461;SDS011;41327;45.102;20.624;2024-03-22T02:48:22;30.75;;;14.05;;
55461;SDS011;41327;45.102;20.624;2024-03-22T02:50:47;27.30;;;15.05;;
55461;SDS011;41327;45.102;20.624;2024-03-22T02:53:13;39.35;;;15.15;;
55461;SDS011;41327;45.102;20.624;2024-03-22T02:55:39;26.10;;;14.23;;
55461;SDS011;41327;45.102;20.624;2024-03-22T02:58:05;29.50;;;13.95;;
55461;SDS011;41327;45.102;20.624;2024-03-22T03:00:31;36.33;;;14.90;;
55461;SDS011;41327;45.102;20.624;2024-03-22T03:03:00;29.27;;;14.60;;
55461;SDS011;41327;45.102;20.624;2024-03-22T03:05:26;29.85;;;13.90;;
55461;SDS011;41327;45.102;20.624;2024-03-22T03:07:51;30.33;;;15.07;;
55461;SDS011;41327;45.102;20.624;2024-03-22T03:10:17;26.58;;;14.48;;
55461;SDS011;41327;45.102;20.624;2024-03-22T03:12:42;29.05;;;13.80;;
55461;SDS011;41327;45.102;20.624;2024-03-22T03:15:08;26.55;;;13.80;;
55461;SDS011;41327;45.102;20.624;2024-03-22T03:17:33;25.40;;;13.93;;
55461;SDS011;41327;45.102;20.624;2024-03-22T03:19:59;29.73;;;14.13;;
55461;SDS011;41327;45.102;20.624;2024-03-22T03:22:24;30.05;;;15.60;;
55461;SDS011;41327;45.102;20.624;2024-03-22T03:24:50;33.08;;;16.48;;
55461;SDS011;41327;45.102;20.624;2024-03-22T03:27:15;29.67;;;15.93;;
55461;SDS011;41327;45.102;20.624;2024-03-22T03:29:41;31.50;;;15.05;;
55461;SDS011;41327;45.102;20.624;2024-03-22T03:32:06;28.25;;;13.57;;
55461;SDS011;41327;45.102;20.624;2024-03-22T03:34:32;30.75;;;14.48;;
55461;SDS011;41327;45.102;20.624;2024-03-22T03:36:58;25.42;;;13.85;;
55461;SDS011;41327;45.102;20.624;2024-03-22T03:39:26;27.98;;;14.30;;
55461;SDS011;41327;45.102;20.624;2024-03-22T03:41:51;26.63;;;14.80;;
55461;SDS011;41327;45.102;20.624;2024-03-22T03:44:17;25.13;;;13.90;;
55461;SDS011;41327;45.102;20.624;2024-03-22T03:46:42;28.67;;;14.13;;
55461;SDS011;41327;45.102;20.624;2024-03-22T03:49:08;29.83;;;14.40;;
55461;SDS011;41327;45.102;20.624;2024-03-22T03:51:33;29.05;;;15.13;;
55461;SDS011;41327;45.102;20.624;2024-03-22T03:53:58;32.97;;;16.67;;
55461;SDS011;41327;45.102;20.624;2024-03-22T03:56:24;38.85;;;17.60;;
55461;SDS011;41327;45.102;20.624;2024-03-22T03:58:49;43.78;;;15.88;;
55461;SDS011;41327;45.102;20.624;2024-03-22T04:01:15;40.60;;;18.13;;
55461;SDS011;41327;45.102;20.624;2024-03-22T04:03:40;35.20;;;17.60;;
55461;SDS011;41327;45.102;20.624;2024-03-22T04:06:06;41.30;;;18.88;;
55461;SDS011;41327;45.102;20.624;2024-03-22T04:08:33;46.28;;;20.08;;
55461;SDS011;41327;45.102;20.624;2024-03-22T04:10:59;41.97;;;18.90;;
55461;SDS011;41327;45.102;20.624;2024-03-22T04:13:25;36.38;;;18.38;;
55461;SDS011;41327;45.102;20.624;2024-03-22T04:15:51;40.88;;;19.05;;
55461;SDS011;41327;45.102;20.624;2024-03-22T04:18:17;39.35;;;18.15;;
55461;SDS011;41327;45.102;20.624;2024-03-22T04:20:42;36.33;;;17.15;;
55461;SDS011;41327;45.102;20.624;2024-03-22T04:23:11;32.85;;;16.95;;
55461;SDS011;41327;45.102;20.624;2024-03-22T04:25:36;35.38;;;16.65;;
55461;SDS011;41327;45.102;20.624;2024-03-22T04:28:02;34.47;;;18.15;;
55461;SDS011;41327;45.102;20.624;2024-03-22T04:30:28;38.65;;;18.02;;
55461;SDS011;41327;45.102;20.624;2024-03-22T04:32:53;46.08;;;22.20;;
55461;SDS011;41327;45.102;20.624;2024-03-22T04:35:19;48.38;;;21.92;;
55461;SDS011;41327;45.102;20.624;2024-03-22T04:37:44;33.85;;;18.23;;
55461;SDS011;41327;45.102;20.624;2024-03-22T04:40:11;42.42;;;18.83;;
55461;SDS011;41327;45.102;20.624;2024-03-22T04:42:37;62.90;;;27.50;;
55461;SDS011;41327;45.102;20.624;2024-03-22T04:45:02;83.25;;;33.70;;
55461;SDS011;41327;45.102;20.624;2024-03-22T04:47:28;72.57;;;28.67;;
55461;SDS011;41327;45.102;20.624;2024-03-22T04:49:56;75.05;;;28.30;;
55461;SDS011;41327;45.102;20.624;2024-03-22T04:52:22;64.95;;;28.08;;
55461;SDS011;41327;45.102;20.624;2024-03-22T04:54:47;104.07;;;43.80;;
55461;SDS011;41327;45.102;20.624;2024-03-22T04:57:13;74.32;;;30.88;;
55461;SDS011;41327;45.102;20.624;2024-03-22T04:59:40;44.53;;;19.85;;
55461;SDS011;41327;45.102;20.624;2024-03-22T05:02:05;33.15;;;17.52;;
55461;SDS011;41327;45.102;20.624;2024-03-22T05:04:31;32.00;;;14.13;;
55461;SDS011;41327;45.102;20.624;2024-03-22T05:06:56;27.38;;;13.93;;
55461;SDS011;41327;45.102;20.624;2024-03-22T05:09:22;24.45;;;13.18;;
55461;SDS011;41327;45.102;20.624;2024-03-22T05:11:47;26.08;;;13.55;;
55461;SDS011;41327;45.102;20.624;2024-03-22T05:14:15;28.58;;;14.38;;
55461;SDS011;41327;45.102;20.624;2024-03-22T05:16:41;59.60;;;28.17;;
55461;SDS011;41327;45.102;20.624;2024-03-22T05:19:07;46.17;;;21.95;;
55461;SDS011;41327;45.102;20.624;2024-03-22T05:21:32;35.05;;;16.17;;
55461;SDS011;41327;45.102;20.624;2024-03-22T05:23:58;26.52;;;14.07;;
55461;SDS011;41327;45.102;20.624;2024-03-22T05:26:23;31.13;;;15.02;;
55461;SDS011;41327;45.102;20.624;2024-03-22T05:28:49;36.58;;;16.85;;
55461;SDS011;41327;45.102;20.624;2024-03-22T05:31:14;38.30;;;18.10;;
55461;SDS011;41327;45.102;20.624;2024-03-22T05:33:40;38.80;;;16.83;;
55461;SDS011;41327;45.102;20.624;2024-03-22T05:36:06;31.50;;;15.18;;
55461;SDS011;41327;45.102;20.624;2024-03-22T05:38:32;32.92;;;15.30;;
55461;SDS011;41327;45.102;20.624;2024-03-22T05:40:57;38.90;;;14.05;;
55461;SDS011;41327;45.102;20.624;2024-03-22T05:43:23;32.30;;;15.98;;
55461;SDS011;41327;45.102;20.624;2024-03-22T05:45:49;29.92;;;13.77;;
55461;SDS011;41327;45.102;20.624;2024-03-22T05:48:14;32.70;;;16.15;;
55461;SDS011;41327;45.102;20.624;2024-03-22T05:50:40;31.50;;;16.13;;
55461;SDS011;41327;45.102;20.624;2024-03-22T05:53:06;28.70;;;14.02;;
55461;SDS011;41327;45.102;20.624;2024-03-22T05:55:31;26.45;;;13.43;;
55461;SDS011;41327;45.102;20.624;2024-03-22T05:57:57;33.08;;;14.45;;
55461;SDS011;41327;45.102;20.624;2024-03-22T06:00:23;25.38;;;13.80;;
55461;SDS011;41327;45.102;20.624;2024-03-22T06:02:48;31.45;;;15.38;;
55461;SDS011;41327;45.102;20.624;2024-03-22T06:05:14;24.23;;;13.60;;
55461;SDS011;41327;45.102;20.624;2024-03-22T06:07:39;30.17;;;14.55;;
55461;SDS011;41327;45.102;20.624;2024-03-22T06:10:09;28.30;;;14.45;;
55461;SDS011;41327;45.102;20.624;2024-03-22T06:12:37;24.70;;;13.35;;
55461;SDS011;41327;45.102;20.624;2024-03-22T06:15:03;29.75;;;14.50;;
55461;SDS011;41327;45.102;20.624;2024-03-22T06:17:31;29.98;;;14.80;;
55461;SDS011;41327;45.102;20.624;2024-03-22T06:19:58;25.55;;;14.13;;
55461;SDS011;41327;45.102;20.624;2024-03-22T06:22:24;26.73;;;13.38;;
55461;SDS011;41327;45.102;20.624;2024-03-22T06:24:50;30.98;;;14.85;;
55461;SDS011;41327;45.102;20.624;2024-03-22T06:27:15;31.13;;;15.45;;
55461;SDS011;41327;45.102;20.624;2024-03-22T06:29:41;27.10;;;14.13;;
55461;SDS011;41327;45.102;20.624;2024-03-22T06:32:06;33.92;;;16.40;;
55461;SDS011;41327;45.102;20.624;2024-03-22T06:34:32;28.73;;;14.15;;
55461;SDS011;41327;45.102;20.624;2024-03-22T06:36:57;30.08;;;14.27;;
55461;SDS011;41327;45.102;20.624;2024-03-22T06:39:23;26.80;;;14.55;;
55461;SDS011;41327;45.102;20.624;2024-03-22T06:41:49;29.80;;;14.55;;
55461;SDS011;41327;45.102;20.624;2024-03-22T06:44:14;28.55;;;14.30;;
55461;SDS011;41327;45.102;20.624;2024-03-22T06:46:40;32.33;;;15.70;;
55461;SDS011;41327;45.102;20.624;2024-03-22T06:49:05;27.83;;;13.77;;
55461;SDS011;41327;45.102;20.624;2024-03-22T06:51:31;26.65;;;13.57;;
55461;SDS011;41327;45.102;20.624;2024-03-22T06:53:56;28.77;;;12.68;;
55461;SDS011;41327;45.102;20.624;2024-03-22T06:56:22;26.98;;;11.82;;
55461;SDS011;41327;45.102;20.624;2024-03-22T06:58:47;24.92;;;12.38;;
55461;SDS011;41327;45.102;20.624;2024-03-22T07:01:13;22.70;;;11.80;;
55461;SDS011;41327;45.102;20.624;2024-03-22T07:03:38;20.27;;;12.10;;
55461;SDS011;41327;45.102;20.624;2024-03-22T07:06:04;21.92;;;10.93;;
55461;SDS011;41327;45.102;20.624;2024-03-22T07:08:32;20.08;;;10.75;;
55461;SDS011;41327;45.102;20.624;2024-03-22T07:10:58;15.05;;;9.40;;
55461;SDS011;41327;45.102;20.624;2024-03-22T07:13:24;16.77;;;8.45;;
55461;SDS011;41327;45.102;20.624;2024-03-22T07:15:50;15.90;;;9.10;;
55461;SDS011;41327;45.102;20.624;2024-03-22T07:18:16;14.25;;;9.32;;
55461;SDS011;41327;45.102;20.624;2024-03-22T07:20:41;16.23;;;8.75;;
55461;SDS011;41327;45.102;20.624;2024-03-22T07:23:07;14.35;;;8.88;;
55461;SDS011;41327;45.102;20.624;2024-03-22T07:25:33;15.52;;;8.82;;
55461;SDS011;41327;45.102;20.624;2024-03-22T07:27:59;15.95;;;8.55;;
55461;SDS011;41327;45.102;20.624;2024-03-22T07:30:24;16.52;;;7.47;;
55461;SDS011;41327;45.102;20.624;2024-03-22T07:32:50;11.82;;;7.38;;
55461;SDS011;41327;45.102;20.624;2024-03-22T07:35:16;17.00;;;7.28;;
55461;SDS011;41327;45.102;20.624;2024-03-22T07:37:41;16.80;;;6.65;;
55461;SDS011;41327;45.102;20.624;2024-03-22T07:40:07;13.55;;;7.95;;
55461;SDS011;41327;45.102;20.624;2024-03-22T07:42:33;12.43;;;6.25;;
55461;SDS011;41327;45.102;20.624;2024-03-22T07:44:58;12.65;;;6.43;;
55461;SDS011;41327;45.102;20.624;2024-03-22T07:47:24;17.30;;;7.20;;
55461;SDS011;41327;45.102;20.624;2024-03-22T07:49:50;11.70;;;6.85;;
55461;SDS011;41327;45.102;20.624;2024-03-22T07:52:16;12.75;;;7.05;;
55461;SDS011;41327;45.102;20.624;2024-03-22T07:54:41;12.40;;;7.28;;
55461;SDS011;41327;45.102;20.624;2024-03-22T07:57:07;12.15;;;7.60;;
55461;SDS011;41327;45.102;20.624;2024-03-22T07:59:32;11.70;;;7.45;;
55461;SDS011;41327;45.102;20.624;2024-03-22T08:01:58;13.45;;;7.30;;
55461;SDS011;41327;45.102;20.624;2024-03-22T08:04:23;14.77;;;7.38;;
55461;SDS011;41327;45.102;20.624;2024-03-22T08:06:50;13.82;;;6.95;;
55461;SDS011;41327;45.102;20.624;2024-03-22T08:09:15;12.68;;;7.53;;
55461;SDS011;41327;45.102;20.624;2024-03-22T08:11:43;13.32;;;7.95;;
55461;SDS011;41327;45.102;20.624;2024-03-22T08:14:08;11.65;;;7.15;;
55461;SDS011;41327;45.102;20.624;2024-03-22T08:16:33;12.75;;;7.03;;
55461;SDS011;41327;45.102;20.624;2024-03-22T08:18:59;12.60;;;6.75;;
55461;SDS011;41327;45.102;20.624;2024-03-22T08:21:24;12.07;;;6.80;;
55461;SDS011;41327;45.102;20.624;2024-03-22T08:23:50;12.63;;;6.75;;
55461;SDS011;41327;45.102;20.624;2024-03-22T08:26:17;11.68;;;7.15;;
55461;SDS011;41327;45.102;20.624;2024-03-22T08:28:43;14.68;;;6.18;;
55461;SDS011;41327;45.102;20.624;2024-03-22T08:31:09;12.07;;;7.10;;
55461;SDS011;41327;45.102;20.624;2024-03-22T08:33:35;11.27;;;5.85;;
55461;SDS011;41327;45.102;20.624;2024-03-22T08:36:00;18.35;;;7.80;;
55461;SDS011;41327;45.102;20.624;2024-03-22T08:38:26;12.55;;;6.68;;
55461;SDS011;41327;45.102;20.624;2024-03-22T08:40:52;11.77;;;6.93;;
55461;SDS011;41327;45.102;20.624;2024-03-22T08:43:17;14.05;;;7.07;;
55461;SDS011;41327;45.102;20.624;2024-03-22T08:45:43;10.98;;;6.32;;
55461;SDS011;41327;45.102;20.624;2024-03-22T08:48:09;16.25;;;8.25;;
55461;SDS011;41327;45.102;20.624;2024-03-22T08:50:34;13.07;;;6.63;;
55461;SDS011;41327;45.102;20.624;2024-03-22T08:53:00;14.95;;;8.10;;
55461;SDS011;41327;45.102;20.624;2024-03-22T08:55:28;14.27;;;8.32;;
55461;SDS011;41327;45.102;20.624;2024-03-22T08:57:54;15.13;;;7.82;;
55461;SDS011;41327;45.102;20.624;2024-03-22T09:00:20;17.38;;;8.45;;
55461;SDS011;41327;45.102;20.624;2024-03-22T09:02:45;14.95;;;8.20;;
55461;SDS011;41327;45.102;20.624;2024-03-22T09:05:11;18.08;;;7.57;;
55461;SDS011;41327;45.102;20.624;2024-03-22T09:07:36;13.98;;;7.93;;
55461;SDS011;41327;45.102;20.624;2024-03-22T09:10:02;17.55;;;8.80;;
55461;SDS011;41327;45.102;20.624;2024-03-22T09:12:28;20.50;;;8.93;;
55461;SDS011;41327;45.102;20.624;2024-03-22T09:14:53;23.55;;;8.50;;
55461;SDS011;41327;45.102;20.624;2024-03-22T09:17:19;11.48;;;6.78;;
55461;SDS011;41327;45.102;20.624;2024-03-22T09:19:44;22.23;;;7.78;;
55461;SDS011;41327;45.102;20.624;2024-03-22T09:22:10;16.60;;;7.93;;
55461;SDS011;41327;45.102;20.624;2024-03-22T09:24:35;23.27;;;8.27;;
55461;SDS011;41327;45.102;20.624;2024-03-22T09:27:01;14.32;;;8.10;;
55461;SDS011;41327;45.102;20.624;2024-03-22T09:29:29;13.48;;;8.27;;
55461;SDS011;41327;45.102;20.624;2024-03-22T09:31:55;20.75;;;8.90;;
55461;SDS011;41327;45.102;20.624;2024-03-22T09:34:20;14.98;;;8.68;;
55461;SDS011;41327;45.102;20.624;2024-03-22T09:36:46;16.73;;;8.30;;
55461;SDS011;41327;45.102;20.624;2024-03-22T09:39:11;20.52;;;8.25;;
55461;SDS011;41327;45.102;20.624;2024-03-22T09:41:40;14.18;;;7.75;;
55461;SDS011;41327;45.102;20.624;2024-03-22T09:44:08;16.25;;;7.97;;
55461;SDS011;41327;45.102;20.624;2024-03-22T09:46:39;17.27;;;9.07;;
55461;SDS011;41327;45.102;20.624;2024-03-22T09:49:06;14.73;;;8.45;;
55461;SDS011;41327;45.102;20.624;2024-03-22T09:51:33;16.15;;;8.35;;
55461;SDS011;41327;45.102;20.624;2024-03-22T09:54:00;15.45;;;8.07;;
55461;SDS011;41327;45.102;20.624;2024-03-22T09:56:26;12.30;;;7.43;;
55461;SDS011;41327;45.102;20.624;2024-03-22T09:58:52;14.45;;;8.15;;
55461;SDS011;41327;45.102;20.624;2024-03-22T10:01:17;12.55;;;6.65;;
55461;SDS011;41327;45.102;20.624;2024-03-22T10:03:43;12.18;;;6.68;;
55461;SDS011;41327;45.102;20.624;2024-03-22T10:06:09;13.07;;;7.82;;
55461;SDS011;41327;45.102;20.624;2024-03-22T10:08:34;16.48;;;8.18;;
55461;SDS011;41327;45.102;20.624;2024-03-22T10:11:03;13.32;;;7.43;;
55461;SDS011;41327;45.102;20.624;2024-03-22T10:13:29;16.50;;;8.00;;
55461;SDS011;41327;45.102;20.624;2024-03-22T10:15:54;15.35;;;7.57;;
55461;SDS011;41327;45.102;20.624;2024-03-22T10:18:21;15.85;;;7.13;;
55461;SDS011;41327;45.102;20.624;2024-03-22T10:20:47;14.88;;;6.75;;
55461;SDS011;41327;45.102;20.624;2024-03-22T10:23:13;13.30;;;7.28;;
55461;SDS011;41327;45.102;20.624;2024-03-22T10:25:39;16.25;;;7.45;;
55461;SDS011;41327;45.102;20.624;2024-03-22T10:28:05;14.95;;;7.95;;
55461;SDS011;41327;45.102;20.624;2024-03-22T10:30:30;12.32;;;7.15;;
55461;SDS011;41327;45.102;20.624;2024-03-22T10:32:57;13.50;;;6.78;;
55461;SDS011;41327;45.102;20.624;2024-03-22T10:35:23;17.73;;;8.07;;
55461;SDS011;41327;45.102;20.624;2024-03-22T10:37:50;13.68;;;6.85;;
55461;SDS011;41327;45.102;20.624;2024-03-22T10:40:15;16.13;;;8.05;;
55461;SDS011;41327;45.102;20.624;2024-03-22T10:42:42;13.00;;;7.43;;
55461;SDS011;41327;45.102;20.624;2024-03-22T10:45:09;11.70;;;6.13;;
55461;SDS011;41327;45.102;20.624;2024-03-22T10:47:35;12.30;;;6.30;;
55461;SDS011;41327;45.102;20.624;2024-03-22T10:50:06;13.52;;;7.50;;
55461;SDS011;41327;45.102;20.624;2024-03-22T10:52:37;15.27;;;7.32;;
55461;SDS011;41327;45.102;20.624;2024-03-22T10:55:06;14.50;;;6.43;;
55461;SDS011;41327;45.102;20.624;2024-03-22T10:57:34;13.48;;;7.35;;
55461;SDS011;41327;45.102;20.624;2024-03-22T11:00:11;15.88;;;7.85;;
55461;SDS011;41327;45.102;20.624;2024-03-22T11:02:37;18.35;;;7.43;;
55461;SDS011;41327;45.102;20.624;2024-03-22T11:05:03;16.52;;;8.60;;
55461;SDS011;41327;45.102;20.624;2024-03-22T11:07:30;14.75;;;7.38;;
55461;SDS011;41327;45.102;20.624;2024-03-22T11:09:56;13.40;;;6.97;;
55461;SDS011;41327;45.102;20.624;2024-03-22T11:12:23;15.45;;;8.23;;
55461;SDS011;41327;45.102;20.624;2024-03-22T11:14:50;14.50;;;7.97;;
55461;SDS011;41327;45.102;20.624;2024-03-22T11:17:17;15.40;;;7.18;;
55461;SDS011;41327;45.102;20.624;2024-03-22T11:19:42;14.52;;;7.35;;
55461;SDS011;41327;45.102;20.624;2024-03-22T11:22:08;12.27;;;6.90;;
55461;SDS011;41327;45.102;20.624;2024-03-22T11:24:36;14.52;;;8.23;;
55461;SDS011;41327;45.102;20.624;2024-03-22T11:27:04;13.23;;;7.20;;
55461;SDS011;41327;45.102;20.624;2024-03-22T11:29:29;13.02;;;6.47;;
55461;SDS011;41327;45.102;20.624;2024-03-22T11:31:55;14.57;;;7.55;;
55461;SDS011;41327;45.102;20.624;2024-03-22T11:34:21;13.13;;;6.85;;
55461;SDS011;41327;45.102;20.624;2024-03-22T11:36:46;13.40;;;7.32;;
55461;SDS011;41327;45.102;20.624;2024-03-22T11:39:12;14.15;;;6.85;;
55461;SDS011;41327;45.102;20.624;2024-03-22T11:41:38;17.27;;;7.80;;
55461;SDS011;41327;45.102;20.624;2024-03-22T11:44:04;15.38;;;6.93;;
55461;SDS011;41327;45.102;20.624;2024-03-22T11:46:29;11.25;;;6.47;;
55461;SDS011;41327;45.102;20.624;2024-03-22T11:48:55;11.98;;;6.07;;
55461;SDS011;41327;45.102;20.624;2024-03-22T11:51:21;14.90;;;7.03;;
55461;SDS011;41327;45.102;20.624;2024-03-22T11:53:51;15.82;;;6.90;;
55461;SDS011;41327;45.102;20.624;2024-03-22T11:56:19;13.68;;;7.10;;
55461;SDS011;41327;45.102;20.624;2024-03-22T11:58:46;13.50;;;6.20;;
55461;SDS011;41327;45.102;20.624;2024-03-22T12:01:13;13.18;;;6.40;;
55461;SDS011;41327;45.102;20.624;2024-03-22T12:03:39;12.80;;;6.88;;
55461;SDS011;41327;45.102;20.624;2024-03-22T12:06:05;13.35;;;7.03;;
55461;SDS011;41327;45.102;20.624;2024-03-22T12:08:31;13.43;;;5.75;;
55461;SDS011;41327;45.102;20.624;2024-03-22T12:10:56;13.25;;;6.97;;
55461;SDS011;41327;45.102;20.624;2024-03-22T12:13:22;11.32;;;6.22;;
55461;SDS011;41327;45.102;20.624;2024-03-22T12:15:47;12.50;;;6.10;;
55461;SDS011;41327;45.102;20.624;2024-03-22T12:18:13;12.35;;;6.00;;
55461;SDS011;41327;45.102;20.624;2024-03-22T12:20:38;12.23;;;5.85;;
55461;SDS011;41327;45.102;20.624;2024-03-22T12:23:04;10.20;;;6.13;;
55461;SDS011;41327;45.102;20.624;2024-03-22T12:25:29;17.92;;;7.05;;
55461;SDS011;41327;45.102;20.624;2024-03-22T12:27:55;12.52;;;6.13;;
55461;SDS011;41327;45.102;20.624;2024-03-22T12:30:21;11.35;;;6.30;;
55461;SDS011;41327;45.102;20.624;2024-03-22T12:32:47;14.73;;;7.18;;
55461;SDS011;41327;45.102;20.624;2024-03-22T12:35:12;18.13;;;6.60;;
55461;SDS011;41327;45.102;20.624;2024-03-22T12:37:38;12.60;;;6.40;;
55461;SDS011;41327;45.102;20.624;2024-03-22T12:40:05;14.65;;;6.43;;
55461;SDS011;41327;45.102;20.624;2024-03-22T12:42:33;11.63;;;5.35;;
55461;SDS011;41327;45.102;20.624;2024-03-22T12:44:59;19.85;;;6.75;;
55461;SDS011;41327;45.102;20.624;2024-03-22T12:47:24;13.27;;;6.63;;
55461;SDS011;41327;45.102;20.624;2024-03-22T12:49:50;11.93;;;6.05;;
55461;SDS011;41327;45.102;20.624;2024-03-22T12:52:16;12.63;;;5.85;;
55461;SDS011;41327;45.102;20.624;2024-03-22T12:54:41;20.15;;;7.38;;
55461;SDS011;41327;45.102;20.624;2024-03-22T12:57:07;12.18;;;6.03;;
55461;SDS011;41327;45.102;20.624;2024-03-22T12:59:33;15.30;;;6.40;;
55461;SDS011;41327;45.102;20.624;2024-03-22T13:01:59;9.77;;;4.65;;
55461;SDS011;41327;45.102;20.624;2024-03-22T13:04:24;12.43;;;5.15;;
55461;SDS011;41327;45.102;20.624;2024-03-22T13:06:50;18.33;;;6.97;;
55461;SDS011;41327;45.102;20.624;2024-03-22T13:09:16;14.68;;;6.15;;
55461;SDS011;41327;45.102;20.624;2024-03-22T13:11:45;16.00;;;5.70;;
55461;SDS011;41327;45.102;20.624;2024-03-22T13:14:10;15.18;;;5.40;;
55461;SDS011;41327;45.102;20.624;2024-03-22T13:16:36;11.50;;;5.78;;
55461;SDS011;41327;45.102;20.624;2024-03-22T13:19:01;13.95;;;5.43;;
55461;SDS011;41327;45.102;20.624;2024-03-22T13:21:27;10.38;;;5.82;;
55461;SDS011;41327;45.102;20.624;2024-03-22T13:23:53;13.80;;;6.25;;
55461;SDS011;41327;45.102;20.624;2024-03-22T13:26:18;11.93;;;6.65;;
55461;SDS011;41327;45.102;20.624;2024-03-22T13:28:44;10.25;;;5.70;;
55461;SDS011;41327;45.102;20.624;2024-03-22T13:31:09;22.25;;;7.88;;
55461;SDS011;41327;45.102;20.624;2024-03-22T13:33:35;15.82;;;7.03;;
55461;SDS011;41327;45.102;20.624;2024-03-22T13:36:01;14.90;;;6.82;;
55461;SDS011;41327;45.102;20.624;2024-03-22T13:38:27;12.45;;;5.82;;
55461;SDS011;41327;45.102;20.624;2024-03-22T13:40:56;12.18;;;5.60;;
55461;SDS011;41327;45.102;20.624;2024-03-22T13:43:25;8.65;;;5.10;;
55461;SDS011;41327;45.102;20.624;2024-03-22T13:45:52;10.30;;;5.03;;
55461;SDS011;41327;45.102;20.624;2024-03-22T13:48:22;13.40;;;5.07;;
55461;SDS011;41327;45.102;20.624;2024-03-22T13:50:52;10.07;;;5.65;;
55461;SDS011;41327;45.102;20.624;2024-03-22T13:53:18;10.93;;;5.80;;
55461;SDS011;41327;45.102;20.624;2024-03-22T13:55:47;10.40;;;5.03;;
55461;SDS011;41327;45.102;20.624;2024-03-22T13:58:15;11.55;;;5.90;;
55461;SDS011;41327;45.102;20.624;2024-03-22T14:00:41;10.55;;;5.50;;
55461;SDS011;41327;45.102;20.624;2024-03-22T14:03:07;10.13;;;5.43;;
55461;SDS011;41327;45.102;20.624;2024-03-22T14:05:32;9.73;;;5.85;;